createdAt,value
2023-10-23T00:00:58.101Z,11.91
2023-10-23T00:06:00.003Z,11.87
2023-10-23T00:11:07.054Z,11.90
2023-10-23T00:16:09.015Z,11.88
2023-10-23T00:21:13.425Z,11.85
2023-10-23T00:26:15.336Z,11.81
2023-10-23T00:31:29.008Z,11.79
2023-10-23T00:36:31.008Z,11.74
2023-10-23T00:41:37.545Z,11.81
2023-10-23T00:46:39.648Z,11.83
2023-10-23T00:51:51.256Z,11.89
2023-10-23T00:56:53.315Z,11.88
2023-10-23T01:01:55.368Z,11.89
2023-10-23T01:07:00.408Z,11.94
2023-10-23T01:12:16.840Z,11.90
2023-10-23T01:17:18.981Z,11.90
2023-10-23T01:22:20.930Z,11.87
2023-10-23T01:27:22.997Z,11.83
2023-10-23T01:32:25.141Z,11.77
2023-10-23T01:37:27.400Z,11.75
2023-10-23T01:42:34.083Z,11.62
2023-10-23T01:47:36.170Z,11.54
2023-10-23T01:52:38.765Z,11.50
2023-10-23T01:57:40.766Z,11.41
2023-10-23T02:02:45.077Z,11.35
2023-10-23T02:07:47.048Z,11.27
2023-10-23T02:12:49.105Z,11.24
2023-10-23T02:17:52.293Z,11.25
2023-10-23T02:22:54.628Z,11.23
2023-10-23T02:27:56.677Z,11.19
2023-10-23T02:33:01.023Z,11.19
2023-10-23T02:38:04.276Z,11.18
2023-10-23T02:43:07.401Z,11.18
2023-10-23T02:48:09.746Z,11.20
2023-10-23T02:53:11.691Z,11.17
2023-10-23T02:58:14.710Z,11.18
2023-10-23T03:03:16.787Z,11.15
2023-10-23T03:08:19.916Z,11.18
2023-10-23T03:13:21.930Z,11.18
2023-10-23T03:18:23.969Z,11.18
2023-10-23T03:23:28.610Z,11.14
2023-10-23T03:28:30.694Z,11.12
2023-10-23T03:33:33.990Z,11.12
2023-10-23T03:38:36.288Z,11.14
2023-10-23T03:43:38.373Z,11.12
2023-10-23T03:48:40.425Z,11.11
2023-10-23T03:53:49.409Z,11.08
2023-10-23T03:58:51.493Z,11.10
2023-10-23T04:03:54.531Z,11.08
2023-10-23T04:08:56.664Z,11.08
2023-10-23T04:13:58.750Z,11.09
2023-10-23T04:19:00.812Z,11.07
2023-10-23T04:24:02.790Z,11.05
2023-10-23T04:29:04.877Z,11.07
2023-10-23T04:34:06.918Z,11.09
2023-10-23T04:39:08.965Z,11.08
2023-10-23T04:44:11.922Z,11.10
2023-10-23T04:49:17.974Z,11.13
2023-10-23T04:54:19.966Z,11.13
2023-10-23T04:59:22.311Z,11.17
2023-10-23T05:04:35.187Z,11.19
2023-10-23T05:09:43.502Z,11.19
2023-10-23T05:14:46.149Z,11.19
2023-10-23T05:19:49.272Z,11.21
2023-10-23T05:24:51.708Z,11.20
2023-10-23T05:29:56.003Z,11.20
2023-10-23T05:34:59.368Z,11.20
2023-10-23T05:40:26.464Z,11.20
2023-10-23T05:45:39.362Z,11.22
2023-10-23T05:51:02.270Z,11.22
2023-10-23T05:56:12.405Z,11.28
2023-10-23T06:01:22.048Z,11.31
2023-10-23T06:06:28.149Z,11.32
2023-10-23T06:11:30.369Z,11.36
2023-10-23T06:16:32.469Z,11.36
2023-10-23T06:21:36.648Z,11.32
2023-10-23T06:26:42.567Z,11.33
2023-10-23T06:31:46.485Z,11.38
2023-10-23T06:36:51.002Z,11.43
2023-10-23T06:41:54.299Z,11.40
2023-10-23T06:46:56.446Z,11.35
2023-10-23T06:51:58.610Z,11.41
2023-10-23T06:57:07.566Z,11.40
2023-10-23T07:02:10.739Z,11.41
2023-10-23T07:07:28.631Z,11.40
2023-10-23T07:12:32.144Z,11.44
2023-10-23T07:17:42.229Z,11.50
2023-10-23T07:22:48.766Z,11.53
2023-10-23T07:27:51.801Z,11.55
2023-10-23T07:32:53.954Z,11.59
2023-10-23T07:37:57.075Z,11.60
2023-10-23T07:43:01.471Z,11.55
2023-10-23T07:48:07.748Z,11.59
2023-10-23T07:53:10.709Z,11.55
2023-10-23T07:58:17.536Z,11.56
2023-10-23T08:03:19.882Z,11.61
2023-10-23T08:08:22.092Z,11.69
2023-10-23T08:13:30.135Z,11.71
2023-10-23T08:18:37.953Z,11.79
2023-10-23T08:23:45.426Z,11.98
2023-10-23T08:29:01.242Z,12.11
2023-10-23T08:34:15.567Z,12.28
2023-10-23T08:39:21.230Z,12.17
2023-10-23T08:44:26.612Z,12.07
2023-10-23T08:49:35.027Z,12.13
2023-10-23T08:54:42.017Z,12.25
2023-10-23T08:59:49.081Z,12.39
2023-10-23T09:04:51.319Z,12.29
2023-10-23T09:10:09.510Z,12.20
2023-10-23T09:15:15.473Z,12.23
2023-10-23T09:20:17.634Z,12.36
2023-10-23T09:25:24.047Z,12.56
2023-10-23T09:30:28.350Z,12.61
2023-10-23T09:35:40.917Z,12.69
2023-10-23T09:40:48.923Z,12.66
2023-10-23T09:45:56.997Z,12.52
2023-10-23T09:51:02.504Z,12.55
2023-10-23T09:56:10.109Z,12.20
2023-10-23T10:01:16.452Z,12.25
2023-10-23T10:06:25.058Z,12.17
2023-10-23T10:11:28.536Z,12.12
2023-10-23T10:16:31.780Z,12.11
2023-10-23T10:22:00.894Z,12.13
2023-10-23T10:27:05.205Z,12.13
2023-10-23T10:32:14.172Z,12.19
2023-10-23T10:37:25.187Z,12.41
2023-10-23T10:42:30.885Z,12.65
2023-10-23T10:47:55.669Z,12.75
2023-10-23T10:53:03.542Z,12.90
2023-10-23T10:58:06.173Z,12.97
2023-10-23T11:03:11.221Z,13.09
2023-10-23T11:08:14.518Z,13.06
2023-10-23T11:13:25.706Z,13.11
2023-10-23T11:18:30.973Z,13.17
2023-10-23T11:23:37.285Z,13.21
2023-10-23T11:28:41.671Z,13.22
2023-10-23T11:33:51.937Z,13.34
2023-10-23T11:38:58.750Z,13.28
2023-10-23T11:44:02.371Z,13.24
2023-10-23T11:49:06.115Z,13.18
2023-10-23T11:54:08.312Z,13.14
2023-10-23T11:59:20.686Z,13.17
2023-10-23T12:04:37.073Z,13.27
2023-10-23T12:09:39.471Z,13.36
2023-10-23T12:14:41.726Z,13.48
2023-10-23T12:19:48.020Z,13.53
2023-10-23T12:24:52.368Z,13.53
2023-10-23T12:30:06.395Z,13.58
2023-10-23T12:35:15.289Z,13.62
2023-10-23T12:40:17.762Z,13.53
2023-10-23T12:45:24.055Z,13.47
2023-10-23T12:50:27.479Z,13.47
2023-10-23T12:55:30.846Z,13.41
2023-10-23T13:00:34.298Z,13.44
2023-10-23T13:07:22.712Z,13.33
2023-10-23T13:12:25.057Z,13.44
2023-10-23T13:17:27.337Z,13.61
2023-10-23T13:22:32.929Z,13.62
2023-10-23T13:27:41.808Z,13.60
2023-10-23T13:32:44.159Z,13.82
2023-10-23T13:37:47.329Z,13.98
2023-10-23T13:42:51.025Z,13.80
2023-10-23T13:48:00.865Z,13.70
2023-10-23T13:53:09.157Z,13.70
2023-10-23T13:58:11.942Z,13.67
2023-10-23T14:03:19.951Z,13.62
2023-10-23T14:08:34.150Z,13.54
2023-10-23T14:13:50.990Z,13.61
2023-10-23T14:18:55.353Z,13.62
2023-10-23T14:24:01.991Z,13.75
2023-10-23T14:29:09.009Z,13.71
2023-10-23T14:34:27.712Z,13.70
2023-10-23T14:39:37.121Z,13.55
2023-10-23T14:44:45.927Z,13.29
2023-10-23T14:49:50.291Z,13.07
2023-10-23T14:54:55.999Z,12.97
2023-10-23T15:00:01.598Z,12.72
2023-10-23T15:05:09.190Z,12.60
2023-10-23T15:10:17.434Z,12.50
2023-10-23T15:15:34.961Z,12.18
2023-10-23T15:20:39.980Z,11.80
2023-10-23T15:25:43.754Z,11.45
2023-10-23T15:30:52.227Z,11.17
2023-10-23T15:35:59.156Z,10.93
2023-10-23T15:41:09.429Z,10.68
2023-10-23T15:46:15.653Z,10.58
2023-10-23T15:51:28.956Z,10.19
2023-10-23T15:56:44.212Z,10.07
2023-10-23T16:01:49.085Z,9.87
2023-10-23T16:06:59.553Z,9.97
2023-10-23T16:12:10.058Z,9.91
2023-10-23T16:17:21.724Z,9.92
2023-10-23T16:22:37.144Z,9.70
2023-10-23T16:27:40.670Z,9.53
2023-10-23T16:32:44.177Z,9.74
2023-10-23T16:37:55.080Z,9.68
2023-10-23T16:42:59.108Z,9.49
2023-10-23T16:48:11.128Z,9.29
2023-10-23T16:53:15.274Z,9.28
2023-10-23T16:58:37.327Z,9.40
2023-10-23T17:03:41.861Z,9.52
2023-10-23T17:09:13.559Z,9.68
2023-10-23T17:14:17.431Z,9.65
2023-10-23T17:19:20.025Z,9.72
2023-10-23T17:24:32.842Z,9.91
2023-10-23T17:29:38.130Z,10.02
2023-10-23T17:34:44.318Z,9.84
2023-10-23T17:39:50.182Z,9.77
2023-10-23T17:44:57.884Z,9.77
2023-10-23T17:50:02.321Z,9.80
2023-10-23T17:55:09.087Z,10.05
2023-10-23T18:00:12.351Z,10.18
2023-10-23T18:05:35.846Z,10.45
2023-10-23T18:10:39.341Z,10.51
2023-10-23T18:15:42.394Z,10.68
2023-10-23T18:20:48.474Z,10.71
2023-10-23T18:25:53.337Z,10.48
2023-10-23T18:30:57.471Z,10.24
2023-10-23T18:36:13.713Z,10.21
2023-10-23T18:41:23.691Z,10.02
2023-10-23T18:46:34.423Z,9.78
2023-10-23T18:51:45.542Z,9.76
2023-10-23T18:56:49.533Z,9.94
2023-10-23T19:01:52.854Z,10.00
2023-10-23T19:07:02.220Z,9.92
2023-10-23T19:12:13.249Z,9.85
2023-10-23T19:17:28.753Z,9.79
2023-10-23T19:22:57.218Z,9.86
2023-10-23T19:28:19.774Z,10.02
2023-10-23T19:33:31.254Z,9.97
2023-10-23T19:38:35.209Z,9.97
2023-10-23T19:43:51.076Z,9.85
2023-10-23T19:48:57.667Z,9.69
2023-10-23T19:54:03.990Z,9.64
2023-10-23T19:59:27.649Z,9.51
2023-10-23T20:04:30.120Z,9.62
2023-10-23T20:09:33.024Z,9.71
2023-10-23T20:14:44.396Z,9.63
2023-10-23T20:19:59.698Z,9.66
2023-10-23T20:25:05.445Z,9.14
2023-10-23T20:30:31.428Z,9.10
2023-10-23T20:35:50.504Z,8.89
2023-10-23T20:40:57.795Z,9.01
2023-10-23T20:46:00.413Z,8.89
2023-10-23T20:51:15.008Z,8.79
2023-10-23T20:56:17.409Z,8.68
2023-10-23T21:01:30.593Z,8.45
2023-10-23T21:06:36.464Z,8.34
2023-10-23T21:11:40.810Z,8.27
2023-10-23T21:16:44.171Z,8.12
2023-10-23T21:21:47.522Z,8.03
2023-10-23T21:26:59.295Z,7.87
2023-10-23T21:32:02.146Z,7.78
2023-10-23T21:37:05.872Z,7.59
2023-10-23T21:42:18.222Z,7.62
2023-10-23T21:47:25.625Z,7.58
2023-10-23T21:52:30.230Z,7.54
2023-10-23T21:57:42.579Z,7.47
2023-10-23T22:02:45.182Z,7.25
2023-10-23T22:07:48.719Z,7.08
2023-10-23T22:12:50.965Z,6.99
2023-10-23T22:17:54.281Z,7.14
2023-10-23T22:22:57.493Z,7.26
2023-10-23T22:28:00.534Z,6.94
2023-10-23T22:33:15.651Z,6.88
2023-10-23T22:38:23.796Z,7.15
2023-10-23T22:43:33.042Z,7.16
2023-10-23T22:48:35.331Z,6.89
2023-10-23T22:53:38.968Z,6.73
2023-10-23T22:58:45.981Z,6.84
2023-10-23T23:03:48.709Z,6.76
2023-10-23T23:08:52.018Z,6.91
2023-10-23T23:14:30.573Z,6.85
2023-10-23T23:19:38.603Z,6.86
2023-10-23T23:24:40.768Z,6.89
2023-10-23T23:29:42.884Z,6.82
2023-10-23T23:34:45.963Z,6.61
2023-10-23T23:39:54.090Z,6.66
2023-10-23T23:44:58.093Z,6.57
2023-10-23T23:50:00.149Z,6.41
2023-10-23T23:55:19.398Z,6.34
